Time;durP1;ratioP1;P1;durP2;ratioP2;P2;SDS_P1;SDS_P2;PMS_P1;PMS_P2;Temp;Humidity;BMP_temperature;BMP_pressure;BME280_temperature;BME280_humidity;BME280_pressure;Samples;Min_cycle;Max_cycle;Signal;HPM_P1;HPM_P2
2021/11/14 00:02:15;;;;;;;18.37;16.67;;;10.40;99.90;;;;;;10498839;28;20200;-85
2021/11/14 00:07:18;;;;;;;22.23;20.03;;;10.40;99.90;;;;;;10491817;28;20274;-84
2021/11/14 00:12:21;;;;;;;23.20;20.73;;;10.50;99.90;;;;;;10468132;28;20211;-85
2021/11/14 00:17:23;;;;;;;21.60;19.50;;;10.40;99.90;;;;;;10464335;28;20335;-84
2021/11/14 00:22:25;;;;;;;22.47;20.27;;;10.30;99.90;;;;;;10493611;28;20664;-85
2021/11/14 00:27:29;;;;;;;23.33;20.77;;;10.40;99.90;;;;;;10479523;28;20217;-84
2021/11/14 00:32:32;;;;;;;23.93;21.43;;;10.40;99.90;;;;;;10495697;28;20584;-84
2021/11/14 00:37:36;;;;;;;23.83;21.57;;;10.40;99.90;;;;;;10473018;28;20279;-85
2021/11/14 00:42:39;;;;;;;24.73;22.33;;;10.40;99.90;;;;;;10479430;28;20287;-84
2021/11/14 00:47:42;;;;;;;23.80;21.60;;;10.30;99.90;;;;;;10476438;28;20233;-85
2021/11/14 00:52:45;;;;;;;25.33;22.83;;;10.30;99.90;;;;;;10486395;28;20205;-85
2021/11/14 00:57:51;;;;;;;23.93;21.57;;;10.30;99.90;;;;;;10479442;28;20688;-85
2021/11/14 01:02:54;;;;;;;23.83;21.50;;;10.30;99.90;;;;;;10495403;28;20676;-85
2021/11/14 01:07:56;;;;;;;24.67;22.30;;;10.30;99.90;;;;;;10496861;28;20269;-85
2021/11/14 01:13:00;;;;;;;27.30;24.80;;;10.30;99.90;;;;;;10478460;28;20250;-85
2021/11/14 01:18:02;;;;;;;24.33;22.03;;;10.30;99.90;;;;;;10458093;28;20292;-85
2021/11/14 01:23:09;;;;;;;25.97;23.37;;;10.30;99.90;;;;;;10465097;28;20204;-86
2021/11/14 01:28:13;;;;;;;26.37;23.60;;;10.20;99.90;;;;;;10461973;28;20548;-86
2021/11/14 01:33:21;;;;;;;25.80;23.40;;;10.20;99.90;;;;;;10461514;28;20197;-84
2021/11/14 01:38:27;;;;;;;26.40;24.00;;;10.20;99.90;;;;;;10456878;28;20228;-85
2021/11/14 01:43:37;;;;;;;26.80;24.30;;;10.20;99.90;;;;;;10457278;28;20193;-85
2021/11/14 01:48:40;;;;;;;26.73;24.00;;;10.20;99.90;;;;;;10457028;28;20244;-84
2021/11/14 01:53:45;;;;;;;27.00;24.30;;;10.20;99.90;;;;;;10458612;28;20197;-84
2021/11/14 01:58:50;;;;;;;28.23;25.37;;;10.20;99.90;;;;;;10458353;28;20222;-86
2021/11/14 02:03:55;;;;;;;27.10;24.47;;;10.20;99.90;;;;;;10467835;28;20200;-86
2021/11/14 02:08:58;;;;;;;27.37;24.60;;;10.20;99.90;;;;;;10455870;28;20217;-85
2021/11/14 02:14:02;;;;;;;27.97;25.17;;;10.20;99.90;;;;;;10476019;28;20228;-85
2021/11/14 02:19:06;;;;;;;26.40;23.90;;;10.20;99.90;;;;;;10481639;28;20676;-84
2021/11/14 02:24:09;;;;;;;24.87;22.50;;;10.20;99.90;;;;;;10463507;28;20223;-85
2021/11/14 02:29:12;;;;;;;27.43;24.73;;;10.20;99.90;;;;;;10465679;28;20269;-85
2021/11/14 02:34:14;;;;;;;27.60;24.90;;;10.20;99.90;;;;;;10465071;28;20287;-85
2021/11/14 02:39:20;;;;;;;27.70;25.00;;;10.20;99.90;;;;;;10461968;28;20613;-85
2021/11/14 02:44:22;;;;;;;26.80;24.00;;;10.20;99.90;;;;;;10480113;28;20263;-85
2021/11/14 02:49:27;;;;;;;25.97;23.50;;;10.20;99.90;;;;;;10482988;28;20267;-85
2021/11/14 02:54:31;;;;;;;24.40;22.10;;;10.20;99.90;;;;;;10476062;28;20261;-85
2021/11/14 02:59:33;;;;;;;24.70;22.20;;;10.20;99.90;;;;;;10482635;28;20235;-85
2021/11/14 03:04:38;;;;;;;25.40;22.90;;;10.20;99.90;;;;;;10475999;28;20222;-85
2021/11/14 03:09:42;;;;;;;26.57;23.97;;;10.20;99.90;;;;;;10471550;28;20259;-85
2021/11/14 03:14:44;;;;;;;27.50;24.67;;;10.20;99.90;;;;;;10499277;28;20200;-85
2021/11/14 03:19:47;;;;;;;26.00;23.40;;;10.30;99.90;;;;;;10482208;28;20696;-85
2021/11/14 03:24:52;;;;;;;26.40;23.70;;;10.30;99.90;;;;;;10480364;28;20215;-85
2021/11/14 03:29:55;;;;;;;26.37;23.77;;;10.30;99.90;;;;;;10474480;28;20270;-84
2021/11/14 03:34:57;;;;;;;26.30;23.70;;;10.30;99.90;;;;;;10497670;28;20200;-85
2021/11/14 03:40:00;;;;;;;26.17;23.67;;;10.30;99.90;;;;;;10481910;28;20684;-85
2021/11/14 03:45:05;;;;;;;25.53;23.00;;;10.30;99.90;;;;;;10480078;28;20204;-84
2021/11/14 03:50:09;;;;;;;26.77;24.27;;;10.20;99.90;;;;;;10484081;28;20290;-85
2021/11/14 03:55:15;;;;;;;24.90;22.53;;;10.30;99.90;;;;;;10497331;28;20216;-85
2021/11/14 04:00:21;;;;;;;25.77;23.40;;;10.30;99.90;;;;;;10473812;28;20287;-85
2021/11/14 04:05:25;;;;;;;25.50;23.13;;;10.30;99.90;;;;;;10473494;28;20245;-85
2021/11/14 04:10:38;;;;;;;24.93;22.63;;;10.30;99.90;;;;;;10475296;28;20220;-84
2021/11/14 04:15:41;;;;;;;26.73;24.13;;;10.30;99.90;;;;;;10477179;28;20641;-85
2021/11/14 04:20:48;;;;;;;27.50;24.80;;;10.40;99.90;;;;;;10469256;28;20642;-85
2021/11/14 04:25:52;;;;;;;26.80;24.20;;;10.30;99.90;;;;;;10474437;28;20232;-85
2021/11/14 04:30:55;;;;;;;27.30;24.80;;;10.30;99.90;;;;;;10478874;28;20266;-86
2021/11/14 04:35:57;;;;;;;27.40;24.50;;;10.30;99.90;;;;;;10481101;28;20227;-85
2021/11/14 04:41:01;;;;;;;27.97;24.97;;;10.20;99.90;;;;;;10488205;28;20275;-85
2021/11/14 04:46:03;;;;;;;27.40;24.70;;;10.20;99.90;;;;;;10490793;28;20251;-85
2021/11/14 04:51:06;;;;;;;26.27;23.77;;;10.20;99.90;;;;;;10478773;28;20235;-85
2021/11/14 04:56:09;;;;;;;27.40;24.70;;;10.20;99.90;;;;;;10478711;28;20243;-85
2021/11/14 05:01:12;;;;;;;27.93;25.13;;;10.20;99.90;;;;;;10478340;28;20207;-85
2021/11/14 05:06:15;;;;;;;26.33;23.53;;;10.20;99.90;;;;;;10480853;28;20232;-86
2021/11/14 05:11:19;;;;;;;25.60;23.00;;;10.20;99.90;;;;;;10475469;28;20225;-85
2021/11/14 05:16:21;;;;;;;27.80;25.03;;;10.20;99.90;;;;;;10472392;28;20236;-86
2021/11/14 05:21:28;;;;;;;29.07;26.00;;;10.20;99.90;;;;;;10495409;28;20284;-85
2021/11/14 05:26:32;;;;;;;27.73;24.83;;;10.30;99.90;;;;;;10470493;28;20577;-84
2021/11/14 05:31:34;;;;;;;29.43;24.17;;;10.30;99.90;;;;;;10486434;28;20224;-85
2021/11/14 05:36:37;;;;;;;27.27;24.47;;;10.30;99.90;;;;;;10462860;28;20231;-85
2021/11/14 05:41:40;;;;;;;26.50;23.87;;;10.30;99.90;;;;;;10475824;28;20570;-86
2021/11/14 05:46:45;;;;;;;27.03;24.27;;;10.30;99.90;;;;;;10469254;28;20634;-85
2021/11/14 05:51:49;;;;;;;26.37;23.60;;;10.30;99.90;;;;;;10477700;28;20216;-84
2021/11/14 05:56:53;;;;;;;26.40;23.80;;;10.40;99.90;;;;;;10502526;28;20721;-85
2021/11/14 06:02:01;;;;;;;24.60;22.00;;;10.40;99.90;;;;;;10471481;28;20677;-85
2021/11/14 06:07:04;;;;;;;26.03;23.40;;;10.40;99.90;;;;;;10488991;22;20585;-80
2021/11/14 06:12:08;;;;;;;27.77;24.87;;;10.40;99.90;;;;;;10536388;28;20202;-80
2021/11/14 06:17:10;;;;;;;26.93;24.23;;;10.40;99.90;;;;;;10516761;28;20627;-81
2021/11/14 06:22:12;;;;;;;27.37;23.57;;;10.30;99.90;;;;;;10544223;28;20637;-80
2021/11/14 06:27:16;;;;;;;27.30;24.60;;;10.30;99.90;;;;;;10518004;28;20216;-81
2021/11/14 06:32:18;;;;;;;27.90;24.90;;;10.30;99.90;;;;;;10542899;28;20204;-80
2021/11/14 06:37:20;;;;;;;26.37;23.67;;;10.30;99.90;;;;;;10526803;28;20709;-80
2021/11/14 06:42:24;;;;;;;26.23;23.63;;;10.20;99.90;;;;;;10530661;28;20207;-80
2021/11/14 06:47:26;;;;;;;27.50;24.60;;;10.20;99.90;;;;;;10522613;28;20311;-80
2021/11/14 06:52:28;;;;;;;26.73;23.97;;;10.20;99.90;;;;;;10538562;28;20208;-80
2021/11/14 06:57:32;;;;;;;26.63;23.80;;;10.20;99.90;;;;;;10546661;28;20239;-80
2021/11/14 07:02:34;;;;;;;26.83;23.93;;;10.20;99.90;;;;;;10545818;28;20215;-79
2021/11/14 07:07:37;;;;;;;25.47;22.13;;;10.20;99.90;;;;;;10541939;28;20219;-80
2021/11/14 07:12:41;;;;;;;28.17;25.20;;;10.20;99.90;;;;;;10515142;28;20196;-81
2021/11/14 07:17:44;;;;;;;25.83;23.13;;;10.20;99.90;;;;;;10506606;28;20207;-80
2021/11/14 07:22:47;;;;;;;28.00;25.20;;;10.30;99.90;;;;;;10522135;28;20726;-80
2021/11/14 07:27:53;;;;;;;27.27;24.33;;;10.30;99.90;;;;;;10547418;28;20215;-80
2021/11/14 07:32:56;;;;;;;29.83;26.67;;;10.20;99.90;;;;;;10527700;28;20208;-80
2021/11/14 07:37:58;;;;;;;27.47;24.60;;;10.30;99.90;;;;;;10544659;28;20214;-80
2021/11/14 07:43:02;;;;;;;25.80;23.23;;;10.30;99.90;;;;;;10530353;28;20215;-80
2021/11/14 07:48:06;;;;;;;28.17;25.17;;;10.30;99.90;;;;;;10545930;28;20219;-80
2021/11/14 07:53:08;;;;;;;27.13;24.53;;;10.40;99.90;;;;;;10539411;28;20211;-80
2021/11/14 07:58:12;;;;;;;29.00;26.13;;;10.50;99.90;;;;;;10504162;28;20698;-80
2021/11/14 08:03:15;;;;;;;30.50;27.33;;;10.50;99.90;;;;;;10507245;28;20203;-80
2021/11/14 08:08:17;;;;;;;28.37;25.57;;;10.60;99.90;;;;;;10523305;28;20313;-80
2021/11/14 08:13:21;;;;;;;29.23;26.37;;;10.70;99.90;;;;;;10527167;28;20195;-80
2021/11/14 08:18:23;;;;;;;26.83;24.20;;;10.80;99.90;;;;;;10527652;28;20238;-80
2021/11/14 08:23:26;;;;;;;31.70;28.43;;;10.80;99.90;;;;;;10546250;28;20217;-80
2021/11/14 08:28:30;;;;;;;33.90;30.40;;;10.90;99.90;;;;;;10534986;28;20747;-80
2021/11/14 08:33:33;;;;;;;30.10;26.97;;;11.00;99.90;;;;;;10521020;28;20210;-80
2021/11/14 08:38:36;;;;;;;28.37;25.37;;;11.00;99.90;;;;;;10544461;28;20282;-80
2021/11/14 08:43:40;;;;;;;27.97;25.47;;;11.00;99.90;;;;;;10543694;28;20252;-80
2021/11/14 08:48:43;;;;;;;29.40;26.37;;;11.10;99.90;;;;;;10542412;28;20216;-80
2021/11/14 08:53:45;;;;;;;28.30;25.60;;;11.20;99.90;;;;;;10541743;28;20606;-80
2021/11/14 08:58:48;;;;;;;29.03;26.17;;;11.20;99.90;;;;;;10503151;28;20692;-80
2021/11/14 09:03:50;;;;;;;27.60;24.90;;;11.40;99.90;;;;;;10507772;28;20193;-80
2021/11/14 09:08:53;;;;;;;25.77;23.27;;;11.50;99.90;;;;;;10505762;28;20219;-80
2021/11/14 09:13:57;;;;;;;26.67;24.13;;;11.50;99.90;;;;;;10522298;28;20242;-80
2021/11/14 09:18:59;;;;;;;26.37;23.77;;;11.60;99.90;;;;;;10526813;28;20588;-79
2021/11/14 09:24:01;;;;;;;22.97;20.83;;;11.60;99.90;;;;;;10519290;28;20660;-79
2021/11/14 09:29:06;;;;;;;23.83;21.67;;;11.60;99.90;;;;;;10515248;28;20303;-79
2021/11/14 09:34:09;;;;;;;24.60;22.20;;;11.70;99.90;;;;;;10505635;28;20258;-80
2021/11/14 09:39:13;;;;;;;22.73;20.70;;;11.70;99.90;;;;;;10509956;28;20307;-79
2021/11/14 09:44:18;;;;;;;22.80;20.57;;;11.80;99.90;;;;;;10519884;28;20644;-80
2021/11/14 09:49:23;;;;;;;23.73;21.53;;;11.80;99.90;;;;;;10523573;28;20730;-79
2021/11/14 09:54:27;;;;;;;22.83;20.63;;;11.80;99.90;;;;;;10507903;28;20192;-79
2021/11/14 09:59:31;;;;;;;24.00;21.73;;;11.90;99.90;;;;;;10512327;28;20302;-79
2021/11/14 10:04:33;;;;;;;21.97;19.93;;;11.80;99.90;;;;;;10517722;28;20192;-79
2021/11/14 10:09:39;;;;;;;22.67;20.37;;;11.90;99.90;;;;;;10511393;28;20219;-79
2021/11/14 10:14:44;;;;;;;23.53;21.13;;;11.90;99.90;;;;;;10527506;28;20199;-79
2021/11/14 10:20:04;;;;;;;24.60;22.13;;;12.10;99.90;;;;;;10507041;28;20754;-80
2021/11/14 10:25:08;;;;;;;24.77;22.40;;;12.10;99.90;;;;;;10504275;28;20235;-80
2021/11/14 10:30:15;;;;;;;25.60;23.10;;;12.20;99.90;;;;;;10514254;28;20239;-80
2021/11/14 10:35:19;;;;;;;23.93;21.43;;;12.20;99.90;;;;;;10534539;28;20254;-80
2021/11/14 10:40:27;;;;;;;23.03;20.63;;;12.20;99.90;;;;;;10521629;28;20220;-80
2021/11/14 10:45:35;;;;;;;23.43;21.07;;;12.20;99.90;;;;;;10516554;28;20209;-79
2021/11/14 10:50:40;;;;;;;24.50;22.00;;;12.10;99.90;;;;;;10498279;28;20231;-79
2021/11/14 10:55:44;;;;;;;25.47;21.57;;;12.10;99.90;;;;;;10522278;28;20750;-79
2021/11/14 11:00:51;;;;;;;23.27;21.00;;;12.20;99.90;;;;;;10521475;28;20254;-78
2021/11/14 11:05:57;;;;;;;22.70;20.30;;;12.20;99.90;;;;;;10545492;28;20251;-79
2021/11/14 11:11:01;;;;;;;24.80;22.30;;;12.10;99.90;;;;;;10536536;28;20269;-79
2021/11/14 11:16:11;;;;;;;24.13;21.60;;;12.00;99.90;;;;;;10539261;28;20227;-79
2021/11/14 11:21:17;;;;;;;21.80;19.70;;;12.00;99.90;;;;;;10500537;28;20198;-79
2021/11/14 11:26:20;;;;;;;25.87;22.13;;;12.10;99.90;;;;;;10534101;28;20250;-79
2021/11/14 11:31:28;;;;;;;23.33;20.93;;;12.10;99.90;;;;;;10510512;28;20315;-78
2021/11/14 11:36:31;;;;;;;21.67;19.40;;;12.20;99.90;;;;;;10503080;28;20684;-79
2021/11/14 11:41:36;;;;;;;23.50;21.07;;;12.20;99.90;;;;;;10537030;28;20188;-79
2021/11/14 11:46:42;;;;;;;23.03;20.57;;;12.20;99.90;;;;;;10546521;28;20246;-79
2021/11/14 11:51:50;;;;;;;23.47;21.03;;;12.20;99.90;;;;;;10533918;28;20224;-79
2021/11/14 11:57:01;;;;;;;22.77;20.33;;;12.10;99.90;;;;;;10508262;28;20221;-78
2021/11/14 12:02:08;;;;;;;23.43;21.10;;;12.10;99.90;;;;;;10530764;28;20279;-79
2021/11/14 12:07:14;;;;;;;23.67;21.27;;;12.10;99.90;;;;;;10545377;22;20263;-82
2021/11/14 12:12:23;;;;;;;24.17;21.77;;;12.00;99.90;;;;;;10474765;28;20224;-82
2021/11/14 12:17:26;;;;;;;23.47;21.17;;;12.10;99.90;;;;;;10496054;28;20307;-82
2021/11/14 12:22:40;;;;;;;23.13;20.83;;;12.10;99.90;;;;;;10471751;28;20729;-82
2021/11/14 12:27:44;;;;;;;21.70;19.47;;;12.20;99.90;;;;;;10478021;28;20229;-81
2021/11/14 12:32:51;;;;;;;22.77;20.47;;;12.30;99.90;;;;;;10482550;28;20217;-82
2021/11/14 12:37:56;;;;;;;22.03;19.83;;;12.40;99.90;;;;;;10470445;28;20276;-82
2021/11/14 12:43:11;;;;;;;22.67;20.27;;;12.50;99.90;;;;;;10488510;28;20414;-82
2021/11/14 12:48:15;;;;;;;22.07;19.10;;;12.50;99.90;;;;;;10495276;28;20224;-82
2021/11/14 12:53:20;;;;;;;20.10;18.00;;;12.40;99.90;;;;;;10444557;28;20767;-82
2021/11/14 12:58:24;;;;;;;19.83;17.70;;;12.40;99.90;;;;;;10469756;28;20224;-82
2021/11/14 13:03:31;;;;;;;20.50;18.37;;;12.30;99.90;;;;;;10491591;28;20204;-82
2021/11/14 13:08:39;;;;;;;21.93;18.30;;;12.30;99.90;;;;;;10488177;28;20347;-82
2021/11/14 13:13:42;;;;;;;24.50;20.30;;;12.30;99.90;;;;;;10483164;28;20647;-82
2021/11/14 13:18:46;;;;;;;23.20;19.53;;;12.30;99.90;;;;;;10455507;28;20600;-82
2021/11/14 13:23:57;;;;;;;27.60;22.10;;;12.20;99.90;;;;;;10461629;28;20288;-82
2021/11/14 13:29:00;;;;;;;24.90;22.00;;;12.20;99.90;;;;;;10477766;28;20220;-83
2021/11/14 13:34:06;;;;;;;27.30;22.00;;;12.10;99.90;;;;;;10465672;28;20204;-82
2021/11/14 13:39:08;;;;;;;25.73;22.80;;;12.20;99.90;;;;;;10495211;28;20327;-82
2021/11/14 13:44:10;;;;;;;25.20;22.20;;;12.10;99.90;;;;;;10476338;28;20231;-82
2021/11/14 13:49:15;;;;;;;27.43;24.07;;;12.10;99.90;;;;;;10489521;28;20224;-82
2021/11/14 13:54:17;;;;;;;25.20;21.40;;;12.10;99.90;;;;;;10480614;28;20212;-83
2021/11/14 13:59:19;;;;;;;26.60;23.80;;;12.10;99.90;;;;;;10481793;28;20216;-83
2021/11/14 14:04:25;;;;;;;25.03;22.43;;;12.10;99.90;;;;;;10493129;28;20208;-83
2021/11/14 14:09:27;;;;;;;22.97;20.63;;;12.20;99.90;;;;;;10481090;28;20266;-83
2021/11/14 14:14:29;;;;;;;21.57;19.30;;;12.20;99.90;;;;;;10506337;28;20278;-83
2021/11/14 14:19:33;;;;;;;22.97;20.57;;;12.20;99.90;;;;;;10508100;28;20299;-83
2021/11/14 14:24:46;;;;;;;22.47;20.17;;;12.20;99.90;;;;;;10491841;28;20204;-82
2021/11/14 14:29:59;;;;;;;22.97;20.57;;;12.20;99.90;;;;;;10479033;28;20227;-83
2021/11/14 14:35:12;;;;;;;21.00;18.83;;;12.20;99.90;;;;;;10501905;28;20205;-83
2021/11/14 14:40:17;;;;;;;22.00;19.80;;;12.10;99.90;;;;;;10485972;28;20696;-83
2021/11/14 14:45:22;;;;;;;20.53;18.43;;;12.10;99.90;;;;;;10490784;28;20204;-83
2021/11/14 14:50:26;;;;;;;21.73;19.60;;;12.10;99.90;;;;;;10489244;28;20666;-82
2021/11/14 14:55:29;;;;;;;21.43;19.17;;;12.20;99.90;;;;;;10507430;28;20207;-83
2021/11/14 15:00:33;;;;;;;21.60;19.30;;;12.10;99.90;;;;;;10499554;28;20603;-83
2021/11/14 15:05:42;;;;;;;19.80;17.80;;;12.10;99.90;;;;;;10468362;28;20205;-83
2021/11/14 15:10:49;;;;;;;19.30;17.30;;;12.10;99.90;;;;;;10494165;28;20711;-84
2021/11/14 15:15:51;;;;;;;20.03;17.97;;;12.10;99.90;;;;;;10510788;28;20601;-83
2021/11/14 15:20:54;;;;;;;19.33;17.43;;;12.00;99.90;;;;;;10511513;28;20642;-83
2021/11/14 15:25:56;;;;;;;19.83;17.73;;;12.00;99.90;;;;;;10494614;28;20207;-83
2021/11/14 15:31:01;;;;;;;20.73;18.73;;;12.00;99.90;;;;;;10512855;28;20307;-82
2021/11/14 15:36:06;;;;;;;20.10;18.17;;;12.00;99.90;;;;;;10502296;28;20204;-82
2021/11/14 15:41:08;;;;;;;21.07;19.03;;;12.00;99.90;;;;;;10468068;28;20299;-82
2021/11/14 15:46:10;;;;;;;19.10;17.20;;;12.00;99.90;;;;;;10481674;28;20221;-82
2021/11/14 15:51:14;;;;;;;19.03;17.13;;;11.90;99.90;;;;;;10497092;28;20228;-83
2021/11/14 15:56:16;;;;;;;18.83;17.00;;;11.90;99.90;;;;;;10485400;28;20216;-82
2021/11/14 16:01:19;;;;;;;17.37;15.57;;;11.90;99.90;;;;;;10502347;28;20200;-83
2021/11/14 16:06:22;;;;;;;20.93;18.70;;;11.90;99.90;;;;;;10497419;28;20319;-83
2021/11/14 16:11:25;;;;;;;19.97;16.10;;;11.90;99.90;;;;;;10476881;28;20290;-83
2021/11/14 16:16:29;;;;;;;18.10;16.20;;;11.90;99.90;;;;;;10502159;28;20242;-83
2021/11/14 16:21:33;;;;;;;19.07;16.60;;;11.90;99.90;;;;;;10504344;28;20196;-82
2021/11/14 16:26:35;;;;;;;15.77;14.20;;;11.90;99.90;;;;;;10473430;28;20284;-82
2021/11/14 16:31:37;;;;;;;17.43;15.27;;;11.90;99.90;;;;;;10498547;28;20222;-82
2021/11/14 16:36:41;;;;;;;15.37;13.77;;;11.90;99.90;;;;;;10497069;28;20251;-82
2021/11/14 16:41:43;;;;;;;14.17;12.87;;;11.90;99.90;;;;;;10480807;28;20200;-82
2021/11/14 16:46:46;;;;;;;14.57;13.07;;;11.80;99.90;;;;;;10477732;28;20229;-82
2021/11/14 16:51:49;;;;;;;13.13;11.83;;;11.90;99.90;;;;;;10493958;28;20221;-83
2021/11/14 16:56:51;;;;;;;13.20;12.00;;;11.80;99.90;;;;;;10453836;28;20225;-82
2021/11/14 17:01:54;;;;;;;13.27;12.07;;;11.80;99.90;;;;;;10458414;28;20196;-83
2021/11/14 17:06:57;;;;;;;13.27;12.00;;;11.80;99.90;;;;;;10490907;28;20262;-83
2021/11/14 17:12:00;;;;;;;14.50;13.10;;;11.90;99.90;;;;;;10472561;28;20390;-82
2021/11/14 17:17:02;;;;;;;14.63;13.17;;;11.90;99.90;;;;;;10456546;28;20319;-82
2021/11/14 17:22:07;;;;;;;14.90;13.50;;;11.80;99.90;;;;;;10455452;28;20205;-83
2021/11/14 17:27:09;;;;;;;15.17;13.67;;;11.90;99.90;;;;;;10485344;28;20235;-83
2021/11/14 17:32:11;;;;;;;15.40;13.97;;;11.90;99.90;;;;;;10463980;28;20228;-83
2021/11/14 17:37:16;;;;;;;15.23;13.77;;;11.90;99.90;;;;;;10477741;28;20228;-83
2021/11/14 17:42:18;;;;;;;15.20;13.80;;;11.90;99.90;;;;;;10482573;28;20687;-83
2021/11/14 17:47:20;;;;;;;14.80;13.50;;;11.80;99.90;;;;;;10506575;28;20281;-83
2021/11/14 17:52:24;;;;;;;14.30;13.00;;;11.80;99.90;;;;;;10491330;28;20228;-82
2021/11/14 17:57:26;;;;;;;15.60;14.00;;;11.80;99.90;;;;;;10462835;28;20263;-83
2021/11/14 18:02:28;;;;;;;15.93;14.43;;;11.80;99.90;;;;;;10473758;28;20196;-84
2021/11/14 18:07:32;;;;;;;14.50;13.20;;;11.80;99.90;;;;;;10485222;28;20774;-83
2021/11/14 18:12:34;;;;;;;14.90;13.50;;;11.80;99.90;;;;;;10486195;28;20231;-83
2021/11/14 18:17:36;;;;;;;12.97;11.80;;;11.80;99.90;;;;;;10455063;28;20688;-82
2021/11/14 18:22:42;;;;;;;14.53;13.27;;;11.80;99.90;;;;;;10454324;28;20197;-82
2021/11/14 18:27:45;;;;;;;14.70;13.27;;;11.80;99.90;;;;;;10434657;28;20813;-83
2021/11/14 18:32:48;;;;;;;14.37;13.00;;;11.80;99.90;;;;;;10461033;28;20225;-83
2021/11/14 18:37:53;;;;;;;14.60;13.30;;;11.80;99.90;;;;;;10469288;28;20235;-82
2021/11/14 18:42:55;;;;;;;14.60;13.30;;;11.80;99.90;;;;;;10475641;28;20205;-83
2021/11/14 18:47:59;;;;;;;12.93;11.73;;;11.80;99.90;;;;;;10467121;28;20245;-83
2021/11/14 18:53:03;;;;;;;13.73;12.57;;;11.80;99.90;;;;;;10469835;28;20233;-82
2021/11/14 18:58:06;;;;;;;13.47;12.13;;;11.80;99.90;;;;;;10479213;28;20225;-82
2021/11/14 19:03:08;;;;;;;13.67;12.57;;;11.80;99.90;;;;;;10477140;28;20291;-83
2021/11/14 19:08:12;;;;;;;13.57;12.47;;;11.80;99.90;;;;;;10477518;28;20224;-83
2021/11/14 19:13:14;;;;;;;12.50;11.40;;;11.80;99.90;;;;;;10470416;28;20232;-83
2021/11/14 19:18:16;;;;;;;13.40;12.30;;;11.80;99.90;;;;;;10481768;28;20794;-82
2021/11/14 19:23:20;;;;;;;13.80;12.30;;;11.80;99.90;;;;;;10499482;28;20207;-82
2021/11/14 19:28:25;;;;;;;14.40;13.10;;;11.80;99.90;;;;;;10486548;28;20224;-82
2021/11/14 19:33:28;;;;;;;14.07;12.87;;;11.80;99.90;;;;;;10474387;28;20266;-82
2021/11/14 19:38:32;;;;;;;12.70;11.53;;;11.80;99.90;;;;;;10477627;28;20311;-83
2021/11/14 19:43:34;;;;;;;13.70;12.50;;;11.70;99.90;;;;;;10460887;28;20228;-82
2021/11/14 19:48:36;;;;;;;14.03;12.83;;;11.80;99.90;;;;;;10497944;28;20228;-82
2021/11/14 19:53:39;;;;;;;13.50;12.20;;;11.70;99.90;;;;;;10476510;28;20315;-82
2021/11/14 19:58:42;;;;;;;13.40;12.10;;;11.80;99.90;;;;;;10465275;28;20312;-83
2021/11/14 20:03:44;;;;;;;12.60;11.50;;;11.70;99.90;;;;;;10491580;28;20310;-83
2021/11/14 20:08:47;;;;;;;13.23;12.03;;;11.70;99.90;;;;;;10487900;28;20266;-82
2021/11/14 20:13:52;;;;;;;13.53;12.33;;;11.70;99.90;;;;;;10462133;28;20225;-82
2021/11/14 20:18:54;;;;;;;13.83;12.50;;;11.70;99.90;;;;;;10490488;28;20250;-82
2021/11/14 20:23:57;;;;;;;15.87;14.37;;;11.70;99.90;;;;;;10507210;28;20204;-83
2021/11/14 20:28:59;;;;;;;15.10;13.60;;;11.70;99.90;;;;;;10504670;28;20728;-82
2021/11/14 20:34:02;;;;;;;14.23;12.93;;;11.70;99.90;;;;;;10458141;28;20228;-82
2021/11/14 20:39:06;;;;;;;16.00;14.50;;;11.70;99.90;;;;;;10446214;28;20252;-83
2021/11/14 20:44:09;;;;;;;16.43;15.00;;;11.70;99.90;;;;;;10473410;28;20610;-82
2021/11/14 20:49:12;;;;;;;14.93;13.53;;;11.70;99.90;;;;;;10503843;28;20235;-83
2021/11/14 20:54:16;;;;;;;16.93;15.23;;;11.70;99.90;;;;;;10480634;28;20228;-83
2021/11/14 20:59:20;;;;;;;16.37;14.87;;;11.70;99.90;;;;;;10476355;28;20221;-83
2021/11/14 21:04:24;;;;;;;15.90;14.40;;;11.70;99.90;;;;;;10459889;28;20261;-82
2021/11/14 21:09:28;;;;;;;17.50;15.80;;;11.70;99.90;;;;;;10495701;28;20232;-83
2021/11/14 21:14:30;;;;;;;17.60;15.07;;;11.70;99.90;;;;;;10510126;28;20230;-83
2021/11/14 21:19:32;;;;;;;17.70;15.80;;;11.70;99.90;;;;;;10510938;28;20273;-82
2021/11/14 21:24:36;;;;;;;15.97;14.43;;;11.70;99.90;;;;;;10495898;28;20193;-82
2021/11/14 21:29:39;;;;;;;15.67;14.07;;;11.60;99.90;;;;;;10493206;28;20231;-82
2021/11/14 21:40:02;;;;;;;19.10;17.20;;;11.50;99.90;;;;;;10497623;28;20228;-81
2021/11/14 21:45:06;;;;;;;16.10;14.60;;;11.60;99.90;;;;;;10517822;28;20203;-82
2021/11/14 21:50:09;;;;;;;17.60;15.23;;;11.60;99.90;;;;;;10513750;28;20299;-82
2021/11/14 21:55:14;;;;;;;18.20;16.27;;;11.60;99.90;;;;;;10487989;28;20283;-81
2021/11/14 22:00:17;;;;;;;16.50;14.87;;;11.60;99.90;;;;;;10516015;28;20246;-82
2021/11/14 22:05:20;;;;;;;16.30;14.70;;;11.60;99.90;;;;;;10516402;28;20193;-82
2021/11/14 22:10:25;;;;;;;15.77;14.17;;;11.50;99.90;;;;;;10517169;28;20236;-81
2021/11/14 22:15:27;;;;;;;15.77;14.00;;;11.60;99.90;;;;;;10488723;28;20291;-81
2021/11/14 22:20:29;;;;;;;17.27;15.13;;;11.50;99.90;;;;;;10495771;28;20291;-82
2021/11/14 22:25:33;;;;;;;16.90;15.20;;;11.50;99.90;;;;;;10506564;28;20212;-82
2021/11/14 22:30:36;;;;;;;18.40;16.60;;;11.60;99.90;;;;;;10494033;28;20273;-82
2021/11/14 22:35:39;;;;;;;18.77;16.50;;;11.50;99.90;;;;;;10512014;28;20211;-82
2021/11/14 22:40:43;;;;;;;17.93;16.10;;;11.50;99.90;;;;;;10487567;28;20383;-82
2021/11/14 22:45:47;;;;;;;20.93;18.67;;;11.50;99.90;;;;;;10483361;28;20260;-82
2021/11/14 22:50:49;;;;;;;17.97;16.07;;;11.50;99.90;;;;;;10476314;28;20202;-82
2021/11/14 22:55:53;;;;;;;18.07;16.23;;;11.50;99.90;;;;;;10480811;28;20204;-83
2021/11/14 23:01:24;;;;;;;15.63;14.03;;;11.50;99.90;;;;;;10484791;28;20189;-82
2021/11/14 23:06:26;;;;;;;18.57;15.90;;;11.50;99.90;;;;;;10481166;28;20635;-82
2021/11/14 23:11:31;;;;;;;19.17;17.20;;;11.50;99.90;;;;;;10480315;28;20288;-82
2021/11/14 23:16:34;;;;;;;19.10;17.07;;;11.50;99.90;;;;;;10460202;28;20713;-82
2021/11/14 23:21:36;;;;;;;18.97;16.87;;;11.40;99.90;;;;;;10502442;28;20539;-82
2021/11/14 23:26:40;;;;;;;19.00;16.73;;;11.40;99.90;;;;;;10495051;28;20315;-83
2021/11/14 23:31:44;;;;;;;19.50;17.23;;;11.50;99.90;;;;;;10510410;28;20217;-83
2021/11/14 23:36:46;;;;;;;22.53;18.67;;;11.40;99.90;;;;;;10474880;28;20213;-82
2021/11/14 23:41:58;;;;;;;19.57;17.50;;;11.40;99.90;;;;;;10505678;28;20220;-82
2021/11/14 23:47:00;;;;;;;19.00;16.07;;;11.40;99.90;;;;;;10515416;28;20252;-82
2021/11/14 23:52:05;;;;;;;21.40;17.10;;;11.40;99.90;;;;;;10488603;28;21003;-82
2021/11/14 23:57:10;;;;;;;24.27;19.07;;;11.30;99.90;;;;;;10477909;28;20304;-83
